createdAt,value
2022-08-23T00:01:31.287Z,4.80
2022-08-23T00:04:02.699Z,4.83
2022-08-23T00:06:31.491Z,4.53
2022-08-23T00:09:00.142Z,5.00
2022-08-23T00:11:29.534Z,5.37
2022-08-23T00:13:58.137Z,4.87
2022-08-23T00:16:26.641Z,4.97
2022-08-23T00:18:55.043Z,4.53
2022-08-23T00:21:24.927Z,4.50
2022-08-23T00:23:53.320Z,4.20
2022-08-23T00:26:21.810Z,4.70
2022-08-23T00:28:50.311Z,4.17
2022-08-23T00:31:18.813Z,4.17
2022-08-23T00:33:47.468Z,4.37
2022-08-23T00:36:15.961Z,4.40
2022-08-23T00:38:45.966Z,4.50
2022-08-23T00:41:14.914Z,4.63
2022-08-23T00:44:01.755Z,4.17
2022-08-23T00:46:51.879Z,4.17
2022-08-23T00:49:20.733Z,4.07
2022-08-23T00:51:52.491Z,4.27
2022-08-23T00:54:23.726Z,4.63
2022-08-23T00:56:52.283Z,4.03
2022-08-23T00:59:21.301Z,4.37
2022-08-23T01:01:49.787Z,4.30
2022-08-23T01:04:18.404Z,5.20
2022-08-23T01:06:48.015Z,4.27
2022-08-23T01:09:17.312Z,4.33
2022-08-23T01:11:47.850Z,4.80
2022-08-23T01:14:17.596Z,4.37
2022-08-23T01:16:47.717Z,4.30
2022-08-23T01:19:17.960Z,4.27
2022-08-23T01:21:47.517Z,4.67
2022-08-23T01:24:32.787Z,4.83
2022-08-23T01:27:06.189Z,4.70
2022-08-23T01:29:34.958Z,4.57
2022-08-23T01:32:03.517Z,4.30
2022-08-23T01:34:32.385Z,4.43
2022-08-23T01:37:06.171Z,4.40
2022-08-23T01:39:36.118Z,4.20
2022-08-23T01:42:07.661Z,4.67
2022-08-23T01:44:36.610Z,4.50
2022-08-23T01:47:06.205Z,4.73
2022-08-23T01:49:34.682Z,4.60
2022-08-23T01:52:03.295Z,4.53
2022-08-23T01:54:31.809Z,4.80
2022-08-23T01:57:01.580Z,5.17
2022-08-23T01:59:30.025Z,4.30
2022-08-23T02:01:58.492Z,4.70
2022-08-23T02:04:27.968Z,4.80
2022-08-23T02:06:56.318Z,4.87
2022-08-23T02:09:25.546Z,4.77
2022-08-23T02:11:54.816Z,4.97
2022-08-23T02:14:24.639Z,4.87
2022-08-23T02:16:53.750Z,6.17
2022-08-23T02:19:31.799Z,5.17
2022-08-23T02:22:00.120Z,5.10
2022-08-23T02:24:28.584Z,5.20
2022-08-23T02:26:57.471Z,5.53
2022-08-23T02:29:30.603Z,5.17
2022-08-23T02:31:59.168Z,4.90
2022-08-23T02:34:29.051Z,4.97
2022-08-23T02:36:57.428Z,4.77
2022-08-23T02:39:26.140Z,5.10
2022-08-23T02:41:54.903Z,4.87
2022-08-23T02:44:24.443Z,4.90
2022-08-23T02:46:54.588Z,5.03
2022-08-23T02:49:23.177Z,4.83
2022-08-23T02:51:51.774Z,5.23
2022-08-23T02:54:20.153Z,5.00
2022-08-23T02:56:48.976Z,4.83
2022-08-23T02:59:17.491Z,4.57
2022-08-23T03:01:46.139Z,4.33
2022-08-23T03:04:16.309Z,4.33
2022-08-23T03:06:45.576Z,4.70
2022-08-23T03:09:13.976Z,4.53
2022-08-23T03:11:45.543Z,4.30
2022-08-23T03:14:14.226Z,4.80
2022-08-23T03:16:42.643Z,4.77
2022-08-23T03:19:11.067Z,4.33
2022-08-23T03:21:40.845Z,4.60
2022-08-23T03:24:12.270Z,4.90
2022-08-23T03:26:43.408Z,4.57
2022-08-23T03:29:11.890Z,4.30
2022-08-23T03:31:41.474Z,4.90
2022-08-23T03:34:10.446Z,4.60
2022-08-23T03:36:38.903Z,4.83
2022-08-23T03:39:08.900Z,4.87
2022-08-23T03:41:37.470Z,4.90
2022-08-23T03:44:06.010Z,5.10
2022-08-23T03:46:34.583Z,5.40
2022-08-23T03:49:03.176Z,5.20
2022-08-23T03:51:31.692Z,4.90
2022-08-23T03:54:00.963Z,5.27
2022-08-23T03:56:31.169Z,5.53
2022-08-23T03:59:00.100Z,5.10
2022-08-23T04:01:28.901Z,5.33
2022-08-23T04:03:59.973Z,5.07
2022-08-23T04:06:28.639Z,5.27
2022-08-23T04:08:57.327Z,5.70
2022-08-23T04:11:25.800Z,5.70
2022-08-23T04:13:56.120Z,5.23
2022-08-23T04:16:24.551Z,5.40
2022-08-23T04:18:52.967Z,5.73
2022-08-23T04:21:22.369Z,5.97
2022-08-23T04:23:50.869Z,5.80
2022-08-23T04:26:19.889Z,5.80
2022-08-23T04:28:48.731Z,5.97
2022-08-23T04:31:18.629Z,5.67
2022-08-23T04:33:52.247Z,5.67
2022-08-23T04:36:23.363Z,6.10
2022-08-23T04:38:52.098Z,6.20
2022-08-23T04:41:38.376Z,6.17
2022-08-23T04:44:06.969Z,6.50
2022-08-23T04:46:36.949Z,6.40
2022-08-23T04:49:05.609Z,6.60
2022-08-23T04:51:34.041Z,6.43
2022-08-23T04:54:02.801Z,6.93
2022-08-23T04:56:31.425Z,6.33
2022-08-23T04:58:59.991Z,6.73
2022-08-23T05:01:28.437Z,6.93
2022-08-23T05:03:58.453Z,6.30
2022-08-23T05:06:27.081Z,6.33
2022-08-23T05:08:55.672Z,6.60
2022-08-23T05:11:24.055Z,7.50
2022-08-23T05:13:52.936Z,7.10
2022-08-23T05:16:21.502Z,7.13
2022-08-23T05:18:50.100Z,7.43
2022-08-23T05:21:20.429Z,7.60
2022-08-23T05:23:50.848Z,7.67
2022-08-23T05:26:23.406Z,7.80
2022-08-23T05:28:51.896Z,7.37
2022-08-23T05:31:21.175Z,7.47
2022-08-23T05:33:49.813Z,7.97
2022-08-23T05:36:20.270Z,8.30
2022-08-23T05:38:49.562Z,8.27
2022-08-23T05:41:18.553Z,9.40
2022-08-23T05:43:52.738Z,8.80
2022-08-23T05:46:21.969Z,8.63
2022-08-23T05:48:55.034Z,9.03
2022-08-23T05:51:25.352Z,8.97
2022-08-23T05:53:54.240Z,8.80
2022-08-23T05:56:23.282Z,10.57
2022-08-23T05:58:53.746Z,10.10
2022-08-23T06:01:25.147Z,10.10
2022-08-23T06:03:53.859Z,9.80
2022-08-23T06:06:22.547Z,9.43
2022-08-23T06:09:05.240Z,9.63
2022-08-23T06:11:33.782Z,9.77
2022-08-23T06:14:02.718Z,10.30
2022-08-23T06:16:31.737Z,9.80
2022-08-23T06:19:02.342Z,10.57
2022-08-23T06:21:30.870Z,9.53
2022-08-23T06:23:59.216Z,8.37
2022-08-23T06:26:31.306Z,10.17
2022-08-23T06:29:00.241Z,8.00
2022-08-23T06:31:47.475Z,7.90
2022-08-23T06:34:17.528Z,7.53
2022-08-23T06:36:46.313Z,7.97
2022-08-23T06:39:14.846Z,7.83
2022-08-23T06:41:44.704Z,7.73
2022-08-23T06:44:13.036Z,8.23
2022-08-23T06:46:41.525Z,7.90
2022-08-23T06:49:10.011Z,7.53
2022-08-23T06:51:38.951Z,7.47
2022-08-23T06:54:07.950Z,7.23
2022-08-23T06:56:38.077Z,6.90
2022-08-23T06:59:07.813Z,7.53
2022-08-23T07:01:52.103Z,7.47
2022-08-23T07:04:22.053Z,7.60
2022-08-23T07:06:50.453Z,7.60
2022-08-23T07:09:19.575Z,7.50
2022-08-23T07:11:48.051Z,6.60
2022-08-23T07:14:19.242Z,7.20
2022-08-23T07:16:48.963Z,7.67
2022-08-23T07:19:17.620Z,6.33
2022-08-23T07:21:46.168Z,6.87
2022-08-23T07:24:17.105Z,7.00
2022-08-23T07:26:45.675Z,7.10
2022-08-23T07:29:14.023Z,6.80
2022-08-23T07:31:44.516Z,6.70
2022-08-23T07:34:15.418Z,6.67
2022-08-23T07:36:44.468Z,7.00
2022-08-23T07:39:13.041Z,5.63
2022-08-23T07:41:41.629Z,6.33
2022-08-23T07:44:10.343Z,6.13
2022-08-23T07:46:39.733Z,5.00
2022-08-23T07:49:10.029Z,4.63
2022-08-23T07:51:38.471Z,3.93
2022-08-23T07:54:07.646Z,4.20
2022-08-23T07:56:36.424Z,4.07
2022-08-23T07:59:04.969Z,3.63
2022-08-23T08:01:33.906Z,3.40
2022-08-23T08:04:02.701Z,3.10
2022-08-23T08:06:33.075Z,2.90
2022-08-23T08:09:01.535Z,2.77
2022-08-23T08:11:34.596Z,2.73
2022-08-23T08:14:07.350Z,3.10
2022-08-23T08:16:36.445Z,2.43
2022-08-23T08:19:07.860Z,2.40
2022-08-23T08:21:39.555Z,2.57
2022-08-23T08:24:08.727Z,1.87
2022-08-23T08:26:37.099Z,2.30
2022-08-23T08:29:05.665Z,2.00
2022-08-23T08:31:34.300Z,2.03
2022-08-23T08:34:02.762Z,1.97
2022-08-23T08:36:32.146Z,2.47
2022-08-23T08:39:02.088Z,2.37
2022-08-23T08:41:35.393Z,2.00
2022-08-23T08:44:05.701Z,2.10
2022-08-23T08:46:36.657Z,1.73
2022-08-23T08:49:05.296Z,2.10
2022-08-23T08:51:41.096Z,1.80
2022-08-23T08:54:11.452Z,1.80
2022-08-23T08:56:40.194Z,2.10
2022-08-23T08:59:09.096Z,1.93
2022-08-23T09:01:38.497Z,2.07
2022-08-23T09:04:07.171Z,2.00
2022-08-23T09:06:36.493Z,1.80
2022-08-23T09:09:09.545Z,1.70
2022-08-23T09:11:45.684Z,1.73
2022-08-23T09:14:28.753Z,1.67
2022-08-23T09:17:05.440Z,1.80
2022-08-23T09:19:35.321Z,1.90
2022-08-23T09:22:04.544Z,2.20
2022-08-23T09:24:32.985Z,2.10
2022-08-23T09:27:02.804Z,2.30
2022-08-23T09:29:31.568Z,2.10
2022-08-23T09:32:02.507Z,2.13
2022-08-23T09:34:42.414Z,2.47
2022-08-23T09:37:16.380Z,2.20
2022-08-23T09:39:46.031Z,2.13
2022-08-23T09:42:27.852Z,2.60
2022-08-23T09:44:56.432Z,2.30
2022-08-23T09:47:33.163Z,2.10
2022-08-23T09:50:09.018Z,2.60
2022-08-23T09:52:38.835Z,2.47
2022-08-23T09:55:08.316Z,1.80
2022-08-23T09:57:38.231Z,1.77
2022-08-23T10:00:19.839Z,1.63
2022-08-23T10:02:48.272Z,1.60
2022-08-23T10:05:19.888Z,1.60
2022-08-23T10:07:55.816Z,1.60
2022-08-23T10:10:26.537Z,1.90
2022-08-23T10:12:56.595Z,1.90
2022-08-23T10:15:25.478Z,2.07
2022-08-23T10:17:56.379Z,1.50
2022-08-23T10:20:32.613Z,1.63
2022-08-23T10:23:04.727Z,1.93
2022-08-23T10:25:34.806Z,1.97
2022-08-23T10:28:23.472Z,2.00
2022-08-23T10:30:53.693Z,1.87
2022-08-23T10:33:23.801Z,1.70
2022-08-23T10:35:54.236Z,1.90
2022-08-23T10:38:40.392Z,1.93
2022-08-23T10:41:13.788Z,2.20
2022-08-23T10:43:45.127Z,1.77
2022-08-23T10:46:14.027Z,2.27
2022-08-23T10:48:49.327Z,1.90
2022-08-23T10:51:23.165Z,2.60
2022-08-23T10:54:03.696Z,2.40
2022-08-23T10:56:34.199Z,2.53
2022-08-23T10:59:05.520Z,2.13
2022-08-23T11:01:36.476Z,2.47
2022-08-23T11:04:05.545Z,2.17
2022-08-23T11:06:45.591Z,1.85
2022-08-23T11:09:28.838Z,2.10
2022-08-23T11:12:08.371Z,2.22
2022-08-23T11:14:43.231Z,2.67
2022-08-23T11:17:12.510Z,3.03
2022-08-23T11:19:51.638Z,2.40
2022-08-23T11:22:20.255Z,2.53
2022-08-23T11:24:56.029Z,3.20
2022-08-23T11:27:42.051Z,2.67
2022-08-23T11:30:28.987Z,2.63
2022-08-23T11:32:58.788Z,3.28
2022-08-23T11:35:37.707Z,2.40
2022-08-23T11:38:22.646Z,2.75
2022-08-23T11:41:03.171Z,2.90
2022-08-23T11:43:32.929Z,3.15
2022-08-23T11:46:18.307Z,3.13
2022-08-23T11:48:49.869Z,3.10
2022-08-23T11:51:20.988Z,3.25
2022-08-23T11:53:56.544Z,3.25
2022-08-23T11:56:29.950Z,3.05
2022-08-23T11:59:19.142Z,3.92
2022-08-23T12:01:47.727Z,3.65
2022-08-23T12:04:30.301Z,4.25
2022-08-23T12:07:03.120Z,4.25
2022-08-23T12:09:49.978Z,4.32
2022-08-23T12:12:38.736Z,4.43
2022-08-23T12:15:09.559Z,2.80
2022-08-23T12:17:58.904Z,2.72
2022-08-23T12:20:32.691Z,2.50
2022-08-23T12:23:10.323Z,3.13
2022-08-23T12:25:38.849Z,3.20
2022-08-23T12:28:08.683Z,3.00
2022-08-23T12:30:42.877Z,3.00
2022-08-23T12:33:13.643Z,2.90
2022-08-23T12:35:45.948Z,3.63
2022-08-23T12:38:15.406Z,3.37
2022-08-23T12:40:45.438Z,3.67
2022-08-23T12:43:22.446Z,3.30
2022-08-23T12:45:52.172Z,3.80
2022-08-23T12:48:21.371Z,4.40
2022-08-23T12:50:57.497Z,4.00
2022-08-23T12:53:29.842Z,3.88
2022-08-23T12:56:01.556Z,3.58
2022-08-23T12:58:33.391Z,4.38
2022-08-23T13:01:04.053Z,4.25
2022-08-23T13:03:33.998Z,4.88
2022-08-23T13:06:04.481Z,3.92
2022-08-23T13:08:35.668Z,3.75
2022-08-23T13:11:07.763Z,4.22
2022-08-23T13:13:36.760Z,5.80
2022-08-23T13:16:05.676Z,5.45
2022-08-23T13:18:35.384Z,4.82
2022-08-23T13:21:27.964Z,6.13
2022-08-23T13:23:56.968Z,5.68
2022-08-23T13:26:37.825Z,5.43
2022-08-23T13:29:07.337Z,5.50
2022-08-23T13:32:03.252Z,5.65
2022-08-23T13:34:36.216Z,4.57
2022-08-23T13:37:17.668Z,4.80
2022-08-23T13:39:49.292Z,5.68
2022-08-23T13:42:26.434Z,4.10
2022-08-23T13:44:55.328Z,4.78
2022-08-23T13:47:24.996Z,3.90
2022-08-23T13:49:53.664Z,4.70
2022-08-23T13:52:56.549Z,4.30
2022-08-23T13:55:12.653Z,4.07
2022-08-23T13:57:41.187Z,4.28
2022-08-23T14:00:10.808Z,5.35
2022-08-23T14:02:39.415Z,5.80
2022-08-23T14:05:08.055Z,4.03
2022-08-23T14:07:37.917Z,4.72
2022-08-23T14:10:06.853Z,6.15
2022-08-23T14:12:35.289Z,4.60
2022-08-23T14:15:04.014Z,4.70
2022-08-23T14:17:32.942Z,4.10
2022-08-23T14:22:54.117Z,3.38
2022-08-23T14:25:22.517Z,3.17
2022-08-23T14:27:51.049Z,2.70
2022-08-23T14:30:29.540Z,2.97
2022-08-23T14:32:58.244Z,3.20
2022-08-23T14:35:26.645Z,2.58
2022-08-23T14:38:04.589Z,3.80
2022-08-23T14:40:33.307Z,3.55
2022-08-23T14:43:01.967Z,3.20
2022-08-23T14:45:30.673Z,4.13
2022-08-23T14:48:05.284Z,4.93
2022-08-23T14:50:35.175Z,5.18
2022-08-23T14:53:05.664Z,4.78
2022-08-23T14:55:34.383Z,4.88
2022-08-23T14:58:03.643Z,4.50
2022-08-23T15:00:32.008Z,5.10
2022-08-23T15:03:00.648Z,4.97
2022-08-23T15:05:29.143Z,4.00
2022-08-23T15:07:57.734Z,3.63
2022-08-23T15:13:26.095Z,3.97
2022-08-23T15:15:55.689Z,4.75
2022-08-23T15:18:24.131Z,4.95
2022-08-23T15:20:53.155Z,4.22
2022-08-23T15:23:21.704Z,3.60
2022-08-23T15:25:52.601Z,4.70
2022-08-23T15:28:21.489Z,3.65
2022-08-23T15:30:50.178Z,3.70
2022-08-23T15:33:20.457Z,3.58
2022-08-23T15:35:55.727Z,5.00
2022-08-23T15:38:25.161Z,3.70
2022-08-23T15:40:55.175Z,4.43
2022-08-23T15:43:25.801Z,3.93
2022-08-23T15:46:05.011Z,3.93
2022-08-23T15:48:34.621Z,3.20
2022-08-23T15:51:03.620Z,3.43
2022-08-23T15:53:32.178Z,3.47
2022-08-23T15:56:05.735Z,3.50
2022-08-23T15:58:34.553Z,3.40
2022-08-23T16:01:03.044Z,3.70
2022-08-23T16:03:32.122Z,3.07
2022-08-23T16:06:00.779Z,3.80
2022-08-23T16:08:29.999Z,3.50
2022-08-23T16:10:58.349Z,3.60
2022-08-23T16:13:28.346Z,2.97
2022-08-23T16:15:56.702Z,3.10
2022-08-23T16:18:25.140Z,3.47
2022-08-23T16:20:54.286Z,3.27
2022-08-23T16:23:23.174Z,4.20
2022-08-23T16:25:51.636Z,3.60
2022-08-23T16:28:20.175Z,3.60
2022-08-23T16:30:49.950Z,3.30
2022-08-23T16:33:18.349Z,2.77
2022-08-23T16:35:46.852Z,3.77
2022-08-23T16:38:16.592Z,3.70
2022-08-23T16:40:45.523Z,3.73
2022-08-23T16:43:13.871Z,5.17
2022-08-23T16:45:42.389Z,3.77
2022-08-23T16:48:14.828Z,4.23
2022-08-23T16:50:43.873Z,3.37
2022-08-23T16:53:12.411Z,3.60
2022-08-23T16:55:43.741Z,3.33
2022-08-23T16:58:14.324Z,3.73
2022-08-23T17:00:44.625Z,6.60
2022-08-23T17:03:15.569Z,3.67
2022-08-23T17:05:44.078Z,3.30
2022-08-23T17:08:14.479Z,3.83
2022-08-23T17:10:42.883Z,3.53
2022-08-23T17:13:11.324Z,3.63
2022-08-23T17:15:39.660Z,3.47
2022-08-23T17:18:07.993Z,4.40
2022-08-23T17:20:38.237Z,4.60
2022-08-23T17:23:06.796Z,4.23
2022-08-23T17:25:35.776Z,3.83
2022-08-23T17:28:04.325Z,3.80
2022-08-23T17:30:32.853Z,4.83
2022-08-23T17:33:01.454Z,3.80
2022-08-23T17:35:33.874Z,3.80
2022-08-23T17:38:04.130Z,3.67
2022-08-23T17:40:33.261Z,3.67
2022-08-23T17:43:03.143Z,3.40
2022-08-23T17:45:31.939Z,3.07
2022-08-23T17:48:00.306Z,2.77
2022-08-23T17:50:28.960Z,3.90
2022-08-23T17:52:57.348Z,3.60
2022-08-23T17:55:27.491Z,2.40
2022-08-23T17:58:03.910Z,2.47
2022-08-23T18:00:33.378Z,2.40
2022-08-23T18:03:01.972Z,2.80
2022-08-23T18:05:30.800Z,2.87
2022-08-23T18:08:00.168Z,2.40
2022-08-23T18:10:30.070Z,2.50
2022-08-23T18:12:58.673Z,2.87
2022-08-23T18:15:27.137Z,2.50
2022-08-23T18:17:58.229Z,2.23
2022-08-23T18:20:27.487Z,2.27
2022-08-23T18:22:56.362Z,2.10
2022-08-23T18:25:24.848Z,2.00
2022-08-23T18:28:09.998Z,1.80
2022-08-23T18:30:39.114Z,1.70
2022-08-23T18:33:07.738Z,1.70
2022-08-23T18:35:42.752Z,1.73
2022-08-23T18:38:12.435Z,1.40
2022-08-23T18:40:46.249Z,1.30
2022-08-23T18:43:16.887Z,1.20
2022-08-23T18:45:45.287Z,1.30
2022-08-23T18:48:13.648Z,1.23
2022-08-23T18:50:42.475Z,1.20
2022-08-23T18:53:10.995Z,1.10
2022-08-23T18:55:39.345Z,1.17
2022-08-23T18:58:11.254Z,1.10
2022-08-23T19:00:49.515Z,1.10
2022-08-23T19:03:22.467Z,1.20
2022-08-23T19:05:51.102Z,1.57
2022-08-23T19:08:19.614Z,1.20
2022-08-23T19:10:49.151Z,1.40
2022-08-23T19:13:17.794Z,1.70
2022-08-23T19:15:49.858Z,1.40
2022-08-23T19:18:18.224Z,1.40
2022-08-23T19:20:46.909Z,1.50
2022-08-23T19:23:15.381Z,1.67
2022-08-23T19:25:45.287Z,1.47
2022-08-23T19:28:15.046Z,1.50
2022-08-23T19:30:44.000Z,1.53
2022-08-23T19:33:13.865Z,1.43
2022-08-23T19:35:43.699Z,1.40
2022-08-23T19:38:14.146Z,1.43
2022-08-23T19:40:42.677Z,1.83
2022-08-23T19:43:14.456Z,1.50
2022-08-23T19:45:42.858Z,1.50
2022-08-23T19:48:11.285Z,1.43
2022-08-23T19:50:41.638Z,1.50
2022-08-23T19:53:10.175Z,1.43
2022-08-23T19:55:41.752Z,1.40
2022-08-23T19:58:10.559Z,1.90
2022-08-23T20:00:39.125Z,1.70
2022-08-23T20:03:07.541Z,1.90
2022-08-23T20:05:36.158Z,1.80
2022-08-23T20:08:06.297Z,1.97
2022-08-23T20:10:34.879Z,1.53
2022-08-23T20:13:03.467Z,1.60
2022-08-23T20:15:31.999Z,2.30
2022-08-23T20:18:00.582Z,2.90
2022-08-23T20:20:29.071Z,3.07
2022-08-23T20:23:15.279Z,3.23
2022-08-23T20:25:45.072Z,3.70
2022-08-23T20:28:13.674Z,2.97
2022-08-23T20:30:42.108Z,1.97
2022-08-23T20:33:10.502Z,1.87
2022-08-23T20:35:39.233Z,1.90
2022-08-23T20:38:07.976Z,1.53
2022-08-23T20:40:36.313Z,1.90
2022-08-23T20:43:06.461Z,1.80
2022-08-23T20:45:35.802Z,1.90
2022-08-23T20:48:04.640Z,1.50
2022-08-23T20:50:37.128Z,1.90
2022-08-23T20:53:11.415Z,1.70
2022-08-23T20:55:39.847Z,1.70
2022-08-23T20:58:09.659Z,1.70
2022-08-23T21:00:37.998Z,1.73
2022-08-23T21:03:06.455Z,1.60
2022-08-23T21:05:34.850Z,1.70
2022-08-23T21:08:04.122Z,1.90
2022-08-23T21:10:32.752Z,1.90
2022-08-23T21:13:01.403Z,1.90
2022-08-23T21:15:35.906Z,2.20
2022-08-23T21:18:04.953Z,2.30
2022-08-23T21:20:33.577Z,2.10
2022-08-23T21:23:02.472Z,2.27
2022-08-23T21:25:30.963Z,2.23
2022-08-23T21:28:03.953Z,2.20
2022-08-23T21:30:32.919Z,2.00
2022-08-23T21:33:02.916Z,2.60
2022-08-23T21:35:31.738Z,2.33
2022-08-23T21:38:00.165Z,2.37
2022-08-23T21:40:29.370Z,2.17
2022-08-23T21:42:57.796Z,2.27
2022-08-23T21:45:26.303Z,2.17
2022-08-23T21:47:55.710Z,2.33
2022-08-23T21:50:26.536Z,1.90
2022-08-23T21:52:57.281Z,2.00
2022-08-23T21:55:34.420Z,2.00
2022-08-23T21:58:05.378Z,1.97
2022-08-23T22:00:34.378Z,1.90
2022-08-23T22:03:03.124Z,2.17
2022-08-23T22:05:33.423Z,1.80
2022-08-23T22:08:01.995Z,1.87
2022-08-23T22:10:30.582Z,2.27
2022-08-23T22:12:58.940Z,2.30
2022-08-23T22:15:27.716Z,1.90
2022-08-23T22:17:56.189Z,1.97
2022-08-23T22:20:24.633Z,1.70
2022-08-23T22:22:54.286Z,1.97
2022-08-23T22:25:22.661Z,2.00
2022-08-23T22:27:50.980Z,1.90
2022-08-23T22:30:19.531Z,1.80
2022-08-23T22:32:47.898Z,1.70
2022-08-23T22:35:16.282Z,1.47
2022-08-23T22:38:03.685Z,1.80
2022-08-23T22:40:34.819Z,1.40
2022-08-23T22:43:03.650Z,1.50
2022-08-23T22:45:32.045Z,1.47
2022-08-23T22:48:00.557Z,1.47
2022-08-23T22:50:29.154Z,1.90
2022-08-23T22:52:58.562Z,1.50
2022-08-23T22:55:26.863Z,2.00
2022-08-23T22:57:56.707Z,2.30
2022-08-23T23:00:28.329Z,2.37
2022-08-23T23:02:58.362Z,2.20
2022-08-23T23:05:26.725Z,1.83
2022-08-23T23:08:12.652Z,2.20
2022-08-23T23:10:40.962Z,2.13
2022-08-23T23:13:10.729Z,1.83
2022-08-23T23:15:40.056Z,1.80
2022-08-23T23:18:08.568Z,2.07
2022-08-23T23:20:40.221Z,1.97
2022-08-23T23:23:08.629Z,2.10
2022-08-23T23:25:37.541Z,1.90
2022-08-23T23:28:06.220Z,2.20
2022-08-23T23:30:37.232Z,2.23
2022-08-23T23:33:05.743Z,2.20
2022-08-23T23:35:34.463Z,1.80
2022-08-23T23:38:03.096Z,2.17
2022-08-23T23:40:31.689Z,2.27
2022-08-23T23:43:00.091Z,2.00
2022-08-23T23:45:28.564Z,1.83
2022-08-23T23:47:58.362Z,2.10
2022-08-23T23:50:26.996Z,2.20
2022-08-23T23:52:55.500Z,1.97
2022-08-23T23:55:23.887Z,2.00
2022-08-23T23:57:53.313Z,2.00
